Mt Bomar Mars — 9HCM9 — position and weather

sailwx.info

Track history (hours):
 
Tides and Currents Weather Stations Pressure Air Temp Water Temp Dewpoint Dewpoint Depression Visibility Wind Speed Wind Dir Waves Ship Positions

Mt Bomar Mars

Last reported at 2016-Jun-22 15:30 UTC. Time now 2016-Jun-25 01:47 UTC.
Position N 46°07' W 001°24'.

Length 107 m; draft 5.4 m.

Type: Ship. MMSI: 256784000.

Date/timePositionNaut miles runAvg speedWind from/ knotsBaromVisibWave heightAir tempDewpointWater temp
2016-Jun-22 15:30N 46°07' W 001°24'8 8.2
2016-Jun-22 14:33N 46°09' W 001°14'0 0.4
2016-Jun-22 13:31N 46°10' W 001°13'0 0.0
2016-Jun-22 12:31N 46°10' W 001°13'0 0.0
2016-Jun-22 11:31N 46°10' W 001°13'0 0.0
2016-Jun-22 10:22N 46°10' W 001°13'0 0.0
2016-Jun-22 09:31N 46°10' W 001°13'0 0.0
2016-Jun-22 08:31N 46°10' W 001°13'0 0.0
2016-Jun-22 07:31N 46°10' W 001°13'0 0.0
2016-Jun-22 06:31N 46°10' W 001°13'0 0.0
2016-Jun-22 05:31N 46°10' W 001°13'0 0.0
2016-Jun-22 04:25N 46°10' W 001°13'0 0.0
2016-Jun-22 03:31N 46°10' W 001°13'0 0.0
2016-Jun-22 02:31N 46°10' W 001°13'0 0.0
2016-Jun-22 01:31N 46°10' W 001°13'0 0.0
2016-Jun-22 00:31N 46°10' W 001°13'0 0.0
2016-Jun-21 23:31N 46°10' W 001°13'0 0.0
2016-Jun-21 22:31N 46°10' W 001°13'0 0.0
2016-Jun-21 21:31N 46°10' W 001°13'0 0.0
2016-Jun-21 20:31N 46°10' W 001°13'0 0.0
2016-Jun-21 19:31N 46°10' W 001°13'0 0.0
2016-Jun-21 18:31N 46°10' W 001°13'0 0.0
2016-Jun-21 17:31N 46°10' W 001°13'0 0.0
2016-Jun-21 16:31N 46°10' W 001°13'0 0.0
2016-Jun-21 15:28N 46°10' W 001°13'0 0.0
2016-Jun-21 14:22N 46°10' W 001°13'0 0.0
2016-Jun-21 13:31N 46°10' W 001°13'0 0.0
2016-Jun-21 12:31N 46°10' W 001°13'0 0.0
2016-Jun-21 11:22N 46°10' W 001°13'0 0.0
2016-Jun-21 10:19N 46°10' W 001°13'0 0.0
2016-Jun-21 09:31N 46°10' W 001°13'0 0.0
2016-Jun-21 08:31N 46°10' W 001°13'0 0.0
2016-Jun-21 07:31N 46°10' W 001°13'0 0.0
2016-Jun-21 06:31N 46°10' W 001°13'0 0.0
2016-Jun-21 04:31N 46°10' W 001°13'0 0.4
2016-Jun-21 03:33N 46°09' W 001°14'5 4.9
2016-Jun-21 02:33N 46°06' W 001°19'1212.1
2016-Jun-21 01:33N 46°07' W 001°36'1111.1
2016-Jun-21 00:33N 46°06' W 001°52'  
2016-Jun-17 14:31N 36°31' W 008°24'1010.4
2016-Jun-17 13:33N 36°29' W 008°12'13210.2
2016-Jun-17 00:34N 35°58' W 005°32'9 8.5
2016-Jun-16 23:34N 36°00' W 005°22'7 7.0
2016-Jun-16 22:33N 35°54' W 005°18'0 0.0
2016-Jun-16 21:31N 35°54' W 005°18'0 0.0
2016-Jun-16 20:31N 35°54' W 005°18'0 0.5
2016-Jun-16 19:33N 35°54' W 005°18'  
Track history (hours):
 
Tides and Currents Weather Stations Pressure Air Temp Water Temp Dewpoint Dewpoint Depression Visibility Wind Speed Wind Dir Waves Ship Positions

Mt Bomar Mars

Last reported at 2016-Jun-22 15:30 UTC. Time now 2016-Jun-25 01:47 UTC.
Position N 46°07' W 001°24'.

Length 107 m; draft 5.4 m.

Type: Ship. MMSI: 256784000.

Date/timePositionNaut miles runAvg speedWind from/ knotsBaromVisibWave heightAir tempDewpointWater temp
2016-Jun-22 15:30N 46°07' W 001°24'8 8.2
2016-Jun-22 14:33N 46°09' W 001°14'0 0.4
2016-Jun-22 13:31N 46°10' W 001°13'0 0.0
2016-Jun-22 12:31N 46°10' W 001°13'0 0.0
2016-Jun-22 11:31N 46°10' W 001°13'0 0.0
2016-Jun-22 10:22N 46°10' W 001°13'0 0.0
2016-Jun-22 09:31N 46°10' W 001°13'0 0.0
2016-Jun-22 08:31N 46°10' W 001°13'0 0.0
2016-Jun-22 07:31N 46°10' W 001°13'0 0.0
2016-Jun-22 06:31N 46°10' W 001°13'0 0.0
2016-Jun-22 05:31N 46°10' W 001°13'0 0.0
2016-Jun-22 04:25N 46°10' W 001°13'0 0.0
2016-Jun-22 03:31N 46°10' W 001°13'0 0.0
2016-Jun-22 02:31N 46°10' W 001°13'0 0.0
2016-Jun-22 01:31N 46°10' W 001°13'0 0.0
2016-Jun-22 00:31N 46°10' W 001°13'0 0.0
2016-Jun-21 23:31N 46°10' W 001°13'0 0.0
2016-Jun-21 22:31N 46°10' W 001°13'0 0.0
2016-Jun-21 21:31N 46°10' W 001°13'0 0.0
2016-Jun-21 20:31N 46°10' W 001°13'0 0.0
2016-Jun-21 19:31N 46°10' W 001°13'0 0.0
2016-Jun-21 18:31N 46°10' W 001°13'0 0.0
2016-Jun-21 17:31N 46°10' W 001°13'0 0.0
2016-Jun-21 16:31N 46°10' W 001°13'0 0.0
2016-Jun-21 15:28N 46°10' W 001°13'0 0.0
2016-Jun-21 14:22N 46°10' W 001°13'0 0.0
2016-Jun-21 13:31N 46°10' W 001°13'0 0.0
2016-Jun-21 12:31N 46°10' W 001°13'0 0.0
2016-Jun-21 11:22N 46°10' W 001°13'0 0.0
2016-Jun-21 10:19N 46°10' W 001°13'0 0.0
2016-Jun-21 09:31N 46°10' W 001°13'0 0.0
2016-Jun-21 08:31N 46°10' W 001°13'0 0.0
2016-Jun-21 07:31N 46°10' W 001°13'0 0.0
2016-Jun-21 06:31N 46°10' W 001°13'0 0.0
2016-Jun-21 04:31N 46°10' W 001°13'0 0.4
2016-Jun-21 03:33N 46°09' W 001°14'5 4.9
2016-Jun-21 02:33N 46°06' W 001°19'1212.1
2016-Jun-21 01:33N 46°07' W 001°36'1111.1
2016-Jun-21 00:33N 46°06' W 001°52'  
2016-Jun-17 14:31N 36°31' W 008°24'1010.4
2016-Jun-17 13:33N 36°29' W 008°12'13210.2
2016-Jun-17 00:34N 35°58' W 005°32'9 8.5
2016-Jun-16 23:34N 36°00' W 005°22'7 7.0
2016-Jun-16 22:33N 35°54' W 005°18'0 0.0
2016-Jun-16 21:31N 35°54' W 005°18'0 0.0
2016-Jun-16 20:31N 35°54' W 005°18'0 0.5
2016-Jun-16 19:33N 35°54' W 005°18'  

Dump ship's entire track history